Green Bank, WV (24944)

8:09 AM EST on February 08, 2016 (GMT -0500)
KWVARNOV2 | | Change Station
CLOSE
Current Station
Personal Weather Station
Location: Arbovale, WV
Elevation: 2723 ft
Nearby Weather Stations
Active Advisory: Winter Weather Advisory

Elev 2723 ft 38.44 °N, 79.82 °W | Updated 4 minutes ago

Partly Cloudy
Partly Cloudy
21.6 °F
Feels Like 22 °F
N
0.0
Wind Variable Wind from North

Today
High -- | Low -- °F
--% Chance of Precip.
Yesterday
High -- | Low -- °F
Precip. -- in
Pressure 29.67 in
Visibility 10.0 miles
Clouds Scattered Clouds 8500 ft
Windchill 22 °F
Dew Point 21 °F
Humidity 98%
Rainfall 0.00 in
Snow Depth Not available.
7:18 AM 5:49 PM
Waning Crescent, 0% visible
METAR KHSP 081255Z AUTO 00000KT 10SM SCT085 00/M07 A2967 RMK AO2 T00011066
Pressure 29.67 in
Visibility 10.0 miles
Clouds Scattered Clouds 8500 ft
Windchill 22 °F
Dew Point 21 °F
Humidity 98%
Rainfall 0.00 in
Snow Depth Not available.
7:18 AM 5:49 PM
Waning Crescent, 0% visible
METAR KHSP 081255Z AUTO 00000KT 10SM SCT085 00/M07 A2967 RMK AO2 T00011066

10-Day Weather Forecast

Almanac

Astronomy

Feb. 08, 2016 Rise Set
Actual Time
Civil Twilight
Nautical Twilight
Astronomical Twilight
Moon
Length of Visible Light
Length of Day
Tomorrow will be .
, % of the Moon is Illuminated

Today's Extremes

State Highs State Lows

Community

WunderPhotos

Upload Photos

1,891,434 photos uploaded!

WunderBlog® & News

Nearby

Air Quality

  Air Quality AQ Index Pollutant
Not available.

Snow Depth

Station Depth Elevation

Earthquake Activity

City Distance Mag. Time & Date
Minimum magnitude displayed is 2.5.

Coastal Water Temperatures

Place Temperature

Stations

Nearby Weather Stations

Station Location Temp. Windchill Dew Point Humidity Wind Precip. Elev Updated Type
                   

Watches & Warnings

Winter Weather Advisory
Issued: 4:03 AM EST Feb. 8, 2016 – National Weather Service

... Winter Weather Advisory now in effect from noon today to 7 am
EST Wednesday...

* hazard types... snow.

* Snow accumulations... 4 to 8 inches over 42 hours. Some settling
and melting of fallen snow can be expected during the advisory
period.

* Timing... snow will be around for most of the week with varying
intensity.

* Impacts... travel may be difficult at times. Visibilities will
be limited at times.


Precautionary/preparedness actions...

A Winter Weather Advisory for snow means that periods of snow
will cause primarily travel difficulties. Be prepared for snow
covered roads and limited visibilities... and use caution while
driving.